sensor_id;sensor_type;location;lat;lon;timestamp;temperature;humidity
4615;DHT22;2320;51.362;6.946;2023-09-18T00:01:38;19.10;99.90
4615;DHT22;2320;51.362;6.946;2023-09-18T00:04:07;19.10;99.90
4615;DHT22;2320;51.362;6.946;2023-09-18T00:06:32;19.10;99.90
4615;DHT22;2320;51.362;6.946;2023-09-18T00:08:58;19.20;99.90
4615;DHT22;2320;51.362;6.946;2023-09-18T00:11:23;19.20;99.90
4615;DHT22;2320;51.362;6.946;2023-09-18T00:13:49;19.10;99.90
4615;DHT22;2320;51.362;6.946;2023-09-18T00:16:14;19.30;99.90
4615;DHT22;2320;51.362;6.946;2023-09-18T00:18:40;19.40;99.90
4615;DHT22;2320;51.362;6.946;2023-09-18T00:21:06;19.20;99.90
4615;DHT22;2320;51.362;6.946;2023-09-18T00:23:32;19.30;99.90
4615;DHT22;2320;51.362;6.946;2023-09-18T00:25:57;19.20;99.90
4615;DHT22;2320;51.362;6.946;2023-09-18T00:28:23;19.30;99.90
4615;DHT22;2320;51.362;6.946;2023-09-18T00:30:49;19.00;99.90
4615;DHT22;2320;51.362;6.946;2023-09-18T00:33:17;19.00;99.90
4615;DHT22;2320;51.362;6.946;2023-09-18T00:35:45;19.00;99.90
4615;DHT22;2320;51.362;6.946;2023-09-18T00:38:10;19.00;99.90
4615;DHT22;2320;51.362;6.946;2023-09-18T00:40:36;19.10;99.90
4615;DHT22;2320;51.362;6.946;2023-09-18T00:43:01;19.20;99.90
4615;DHT22;2320;51.362;6.946;2023-09-18T00:45:29;19.20;99.90
4615;DHT22;2320;51.362;6.946;2023-09-18T00:47:55;18.90;99.90
4615;DHT22;2320;51.362;6.946;2023-09-18T00:50:20;18.90;99.90
4615;DHT22;2320;51.362;6.946;2023-09-18T00:52:47;19.00;99.90
4615;DHT22;2320;51.362;6.946;2023-09-18T00:55:12;19.00;99.90
4615;DHT22;2320;51.362;6.946;2023-09-18T00:57:38;19.00;99.90
4615;DHT22;2320;51.362;6.946;2023-09-18T01:00:04;19.00;99.90
4615;DHT22;2320;51.362;6.946;2023-09-18T01:02:33;19.00;99.90
4615;DHT22;2320;51.362;6.946;2023-09-18T01:04:59;19.10;99.90
4615;DHT22;2320;51.362;6.946;2023-09-18T01:07:24;18.90;99.90
4615;DHT22;2320;51.362;6.946;2023-09-18T01:09:50;18.90;99.90
4615;DHT22;2320;51.362;6.946;2023-09-18T01:12:17;18.90;99.90
4615;DHT22;2320;51.362;6.946;2023-09-18T01:14:57;18.90;99.90
4615;DHT22;2320;51.362;6.946;2023-09-18T01:17:26;18.80;99.90
4615;DHT22;2320;51.362;6.946;2023-09-18T01:19:51;18.80;99.90
4615;DHT22;2320;51.362;6.946;2023-09-18T01:22:18;18.80;99.90
4615;DHT22;2320;51.362;6.946;2023-09-18T01:24:44;18.90;99.90
4615;DHT22;2320;51.362;6.946;2023-09-18T01:27:11;19.00;99.90
4615;DHT22;2320;51.362;6.946;2023-09-18T01:29:38;18.90;99.90
4615;DHT22;2320;51.362;6.946;2023-09-18T01:32:03;19.00;99.90
4615;DHT22;2320;51.362;6.946;2023-09-18T01:34:30;19.00;99.90
4615;DHT22;2320;51.362;6.946;2023-09-18T01:36:58;19.00;99.90
4615;DHT22;2320;51.362;6.946;2023-09-18T01:39:24;18.90;99.90
4615;DHT22;2320;51.362;6.946;2023-09-18T01:41:52;19.00;99.90
4615;DHT22;2320;51.362;6.946;2023-09-18T01:44:18;19.00;99.90
4615;DHT22;2320;51.362;6.946;2023-09-18T01:46:43;18.90;99.90
4615;DHT22;2320;51.362;6.946;2023-09-18T01:49:09;18.90;99.90
4615;DHT22;2320;51.362;6.946;2023-09-18T01:51:35;18.90;99.90
4615;DHT22;2320;51.362;6.946;2023-09-18T01:54:00;18.80;99.90
4615;DHT22;2320;51.362;6.946;2023-09-18T01:56:26;18.90;99.90
4615;DHT22;2320;51.362;6.946;2023-09-18T01:58:51;18.80;99.90
4615;DHT22;2320;51.362;6.946;2023-09-18T02:01:17;18.90;99.90
4615;DHT22;2320;51.362;6.946;2023-09-18T02:03:42;18.90;99.90
4615;DHT22;2320;51.362;6.946;2023-09-18T02:06:08;18.90;99.90
4615;DHT22;2320;51.362;6.946;2023-09-18T02:08:34;18.90;99.90
4615;DHT22;2320;51.362;6.946;2023-09-18T02:10:59;19.00;99.90
4615;DHT22;2320;51.362;6.946;2023-09-18T02:13:25;19.10;99.90
4615;DHT22;2320;51.362;6.946;2023-09-18T02:15:50;19.00;99.90
4615;DHT22;2320;51.362;6.946;2023-09-18T02:18:16;19.00;99.90
4615;DHT22;2320;51.362;6.946;2023-09-18T02:20:41;19.00;99.90
4615;DHT22;2320;51.362;6.946;2023-09-18T02:23:07;19.00;99.90
4615;DHT22;2320;51.362;6.946;2023-09-18T02:25:32;19.10;99.90
4615;DHT22;2320;51.362;6.946;2023-09-18T02:27:58;19.40;99.90
4615;DHT22;2320;51.362;6.946;2023-09-18T02:30:23;19.60;99.90
4615;DHT22;2320;51.362;6.946;2023-09-18T02:32:49;19.60;99.90
4615;DHT22;2320;51.362;6.946;2023-09-18T02:35:14;19.70;99.90
4615;DHT22;2320;51.362;6.946;2023-09-18T02:37:39;19.80;99.90
4615;DHT22;2320;51.362;6.946;2023-09-18T02:40:05;20.00;99.90
4615;DHT22;2320;51.362;6.946;2023-09-18T02:42:31;20.20;99.90
4615;DHT22;2320;51.362;6.946;2023-09-18T02:44:56;20.30;99.90
4615;DHT22;2320;51.362;6.946;2023-09-18T02:47:21;20.40;99.90
4615;DHT22;2320;51.362;6.946;2023-09-18T02:49:47;20.50;99.90
4615;DHT22;2320;51.362;6.946;2023-09-18T02:52:12;20.60;99.90
4615;DHT22;2320;51.362;6.946;2023-09-18T02:54:38;20.70;99.90
4615;DHT22;2320;51.362;6.946;2023-09-18T02:57:03;20.70;99.90
4615;DHT22;2320;51.362;6.946;2023-09-18T02:59:29;20.90;99.90
4615;DHT22;2320;51.362;6.946;2023-09-18T03:01:54;21.10;99.90
4615;DHT22;2320;51.362;6.946;2023-09-18T03:04:20;21.30;99.90
4615;DHT22;2320;51.362;6.946;2023-09-18T03:06:45;21.40;99.90
4615;DHT22;2320;51.362;6.946;2023-09-18T03:09:11;21.60;99.90
4615;DHT22;2320;51.362;6.946;2023-09-18T03:11:37;21.70;99.90
4615;DHT22;2320;51.362;6.946;2023-09-18T03:14:02;21.80;99.90
4615;DHT22;2320;51.362;6.946;2023-09-18T03:16:28;22.00;99.90
4615;DHT22;2320;51.362;6.946;2023-09-18T03:18:53;22.00;99.90
4615;DHT22;2320;51.362;6.946;2023-09-18T03:21:18;22.10;99.90
4615;DHT22;2320;51.362;6.946;2023-09-18T03:23:44;22.10;99.90
4615;DHT22;2320;51.362;6.946;2023-09-18T03:26:09;22.20;99.90
4615;DHT22;2320;51.362;6.946;2023-09-18T03:28:35;22.20;99.90
4615;DHT22;2320;51.362;6.946;2023-09-18T03:31:00;22.20;99.90
4615;DHT22;2320;51.362;6.946;2023-09-18T03:33:26;22.30;99.90
4615;DHT22;2320;51.362;6.946;2023-09-18T03:35:51;22.30;99.90
4615;DHT22;2320;51.362;6.946;2023-09-18T03:38:19;22.50;99.90
4615;DHT22;2320;51.362;6.946;2023-09-18T03:40:46;22.40;99.90
4615;DHT22;2320;51.362;6.946;2023-09-18T03:43:11;22.40;99.90
4615;DHT22;2320;51.362;6.946;2023-09-18T03:45:39;22.40;99.90
4615;DHT22;2320;51.362;6.946;2023-09-18T03:48:08;22.40;99.90
4615;DHT22;2320;51.362;6.946;2023-09-18T03:50:33;22.30;99.90
4615;DHT22;2320;51.362;6.946;2023-09-18T03:52:58;22.30;99.90
4615;DHT22;2320;51.362;6.946;2023-09-18T03:55:24;22.30;99.90
4615;DHT22;2320;51.362;6.946;2023-09-18T03:57:51;22.30;99.90
4615;DHT22;2320;51.362;6.946;2023-09-18T04:00:17;22.30;99.90
4615;DHT22;2320;51.362;6.946;2023-09-18T04:02:43;22.30;99.90
4615;DHT22;2320;51.362;6.946;2023-09-18T04:05:08;22.30;99.90
4615;DHT22;2320;51.362;6.946;2023-09-18T04:07:34;22.20;99.90
4615;DHT22;2320;51.362;6.946;2023-09-18T04:10:00;22.20;99.90
4615;DHT22;2320;51.362;6.946;2023-09-18T04:12:25;22.30;99.90
4615;DHT22;2320;51.362;6.946;2023-09-18T04:14:51;22.30;99.90
4615;DHT22;2320;51.362;6.946;2023-09-18T04:17:17;22.40;99.90
4615;DHT22;2320;51.362;6.946;2023-09-18T04:19:42;22.30;99.90
4615;DHT22;2320;51.362;6.946;2023-09-18T04:22:08;22.20;99.90
4615;DHT22;2320;51.362;6.946;2023-09-18T04:24:34;22.20;99.90
4615;DHT22;2320;51.362;6.946;2023-09-18T04:26:59;22.20;99.90
4615;DHT22;2320;51.362;6.946;2023-09-18T04:29:25;22.20;99.90
4615;DHT22;2320;51.362;6.946;2023-09-18T04:31:50;22.20;99.90
4615;DHT22;2320;51.362;6.946;2023-09-18T04:34:15;22.10;99.90
4615;DHT22;2320;51.362;6.946;2023-09-18T04:36:41;22.10;99.90
4615;DHT22;2320;51.362;6.946;2023-09-18T04:39:08;22.00;99.90
4615;DHT22;2320;51.362;6.946;2023-09-18T04:41:34;22.00;99.90
4615;DHT22;2320;51.362;6.946;2023-09-18T04:44:00;22.00;99.90
4615;DHT22;2320;51.362;6.946;2023-09-18T04:46:25;22.00;99.90
4615;DHT22;2320;51.362;6.946;2023-09-18T04:48:51;22.00;99.90
4615;DHT22;2320;51.362;6.946;2023-09-18T04:51:16;22.00;99.90
4615;DHT22;2320;51.362;6.946;2023-09-18T04:53:42;22.00;99.90
4615;DHT22;2320;51.362;6.946;2023-09-18T04:56:08;21.90;99.90
4615;DHT22;2320;51.362;6.946;2023-09-18T04:58:35;21.90;99.90
4615;DHT22;2320;51.362;6.946;2023-09-18T05:01:02;21.80;99.90
4615;DHT22;2320;51.362;6.946;2023-09-18T05:03:30;21.80;99.90
4615;DHT22;2320;51.362;6.946;2023-09-18T05:05:55;21.80;99.90
4615;DHT22;2320;51.362;6.946;2023-09-18T05:08:21;21.90;99.90
4615;DHT22;2320;51.362;6.946;2023-09-18T05:10:46;21.80;99.90
4615;DHT22;2320;51.362;6.946;2023-09-18T05:13:12;21.70;99.90
4615;DHT22;2320;51.362;6.946;2023-09-18T05:15:38;21.70;99.90
4615;DHT22;2320;51.362;6.946;2023-09-18T05:18:04;21.70;99.90
4615;DHT22;2320;51.362;6.946;2023-09-18T05:20:29;21.60;99.90
4615;DHT22;2320;51.362;6.946;2023-09-18T05:22:56;21.70;99.90
4615;DHT22;2320;51.362;6.946;2023-09-18T05:25:22;21.70;99.90
4615;DHT22;2320;51.362;6.946;2023-09-18T05:27:51;21.70;99.90
4615;DHT22;2320;51.362;6.946;2023-09-18T05:30:23;21.70;99.90
4615;DHT22;2320;51.362;6.946;2023-09-18T05:32:49;21.70;99.90
4615;DHT22;2320;51.362;6.946;2023-09-18T05:35:14;21.70;99.90
4615;DHT22;2320;51.362;6.946;2023-09-18T05:37:42;21.70;99.90
4615;DHT22;2320;51.362;6.946;2023-09-18T05:40:09;21.70;99.90
4615;DHT22;2320;51.362;6.946;2023-09-18T05:42:35;21.60;99.90
4615;DHT22;2320;51.362;6.946;2023-09-18T05:45:02;21.50;99.90
4615;DHT22;2320;51.362;6.946;2023-09-18T05:47:30;21.60;99.90
4615;DHT22;2320;51.362;6.946;2023-09-18T05:49:55;21.60;99.90
4615;DHT22;2320;51.362;6.946;2023-09-18T05:52:21;21.60;99.90
4615;DHT22;2320;51.362;6.946;2023-09-18T05:54:49;21.40;99.90
4615;DHT22;2320;51.362;6.946;2023-09-18T05:57:14;21.40;99.90
4615;DHT22;2320;51.362;6.946;2023-09-18T05:59:40;21.50;99.90
4615;DHT22;2320;51.362;6.946;2023-09-18T06:02:09;21.50;99.90
4615;DHT22;2320;51.362;6.946;2023-09-18T06:04:34;21.50;99.90
4615;DHT22;2320;51.362;6.946;2023-09-18T06:07:05;21.60;99.90
4615;DHT22;2320;51.362;6.946;2023-09-18T06:09:30;21.70;99.90
4615;DHT22;2320;51.362;6.946;2023-09-18T06:11:56;21.70;99.90
4615;DHT22;2320;51.362;6.946;2023-09-18T06:14:22;21.70;99.90
4615;DHT22;2320;51.362;6.946;2023-09-18T06:16:47;21.60;99.90
4615;DHT22;2320;51.362;6.946;2023-09-18T06:19:13;21.60;99.90
4615;DHT22;2320;51.362;6.946;2023-09-18T06:21:38;21.80;99.90
4615;DHT22;2320;51.362;6.946;2023-09-18T06:24:04;21.70;99.90
4615;DHT22;2320;51.362;6.946;2023-09-18T06:26:29;21.60;99.90
4615;DHT22;2320;51.362;6.946;2023-09-18T06:28:55;21.60;99.90
4615;DHT22;2320;51.362;6.946;2023-09-18T06:31:20;21.70;99.90
4615;DHT22;2320;51.362;6.946;2023-09-18T06:33:46;21.90;99.90
4615;DHT22;2320;51.362;6.946;2023-09-18T06:36:13;21.80;99.90
4615;DHT22;2320;51.362;6.946;2023-09-18T06:38:38;21.70;99.90
4615;DHT22;2320;51.362;6.946;2023-09-18T06:41:04;21.70;99.90
4615;DHT22;2320;51.362;6.946;2023-09-18T06:43:29;21.80;99.90
4615;DHT22;2320;51.362;6.946;2023-09-18T06:45:55;21.80;99.90
4615;DHT22;2320;51.362;6.946;2023-09-18T06:48:23;21.80;99.90
4615;DHT22;2320;51.362;6.946;2023-09-18T06:50:48;21.80;99.90
4615;DHT22;2320;51.362;6.946;2023-09-18T06:53:14;21.90;99.90
4615;DHT22;2320;51.362;6.946;2023-09-18T06:55:39;21.80;99.90
4615;DHT22;2320;51.362;6.946;2023-09-18T06:58:05;21.80;99.90
4615;DHT22;2320;51.362;6.946;2023-09-18T07:00:30;21.90;99.90
4615;DHT22;2320;51.362;6.946;2023-09-18T07:02:56;22.10;99.90
4615;DHT22;2320;51.362;6.946;2023-09-18T07:05:22;22.20;99.90
4615;DHT22;2320;51.362;6.946;2023-09-18T07:07:48;22.10;99.90
4615;DHT22;2320;51.362;6.946;2023-09-18T07:10:13;22.20;99.90
4615;DHT22;2320;51.362;6.946;2023-09-18T07:12:38;22.40;99.90
4615;DHT22;2320;51.362;6.946;2023-09-18T07:15:04;22.50;99.90
4615;DHT22;2320;51.362;6.946;2023-09-18T07:17:30;22.70;99.90
4615;DHT22;2320;51.362;6.946;2023-09-18T07:19:56;22.70;99.90
4615;DHT22;2320;51.362;6.946;2023-09-18T07:22:21;22.90;99.90
4615;DHT22;2320;51.362;6.946;2023-09-18T07:24:46;23.00;99.90
4615;DHT22;2320;51.362;6.946;2023-09-18T07:27:12;23.20;99.90
4615;DHT22;2320;51.362;6.946;2023-09-18T07:29:38;23.30;99.90
4615;DHT22;2320;51.362;6.946;2023-09-18T07:32:04;23.50;99.90
4615;DHT22;2320;51.362;6.946;2023-09-18T07:34:29;23.70;99.90
4615;DHT22;2320;51.362;6.946;2023-09-18T07:36:55;23.90;99.90
4615;DHT22;2320;51.362;6.946;2023-09-18T07:39:21;23.80;99.90
4615;DHT22;2320;51.362;6.946;2023-09-18T07:41:47;23.80;99.90
4615;DHT22;2320;51.362;6.946;2023-09-18T07:44:18;23.90;99.90
4615;DHT22;2320;51.362;6.946;2023-09-18T07:46:44;23.80;99.90
4615;DHT22;2320;51.362;6.946;2023-09-18T07:49:09;23.80;99.90
4615;DHT22;2320;51.362;6.946;2023-09-18T07:51:35;23.90;99.90
4615;DHT22;2320;51.362;6.946;2023-09-18T07:54:00;23.80;99.90
4615;DHT22;2320;51.362;6.946;2023-09-18T07:56:25;23.50;99.90
4615;DHT22;2320;51.362;6.946;2023-09-18T07:58:52;23.40;99.90
4615;DHT22;2320;51.362;6.946;2023-09-18T08:01:18;23.20;99.90
4615;DHT22;2320;51.362;6.946;2023-09-18T08:03:43;23.10;99.90
4615;DHT22;2320;51.362;6.946;2023-09-18T08:06:09;23.10;99.90
4615;DHT22;2320;51.362;6.946;2023-09-18T08:08:35;22.80;99.90
4615;DHT22;2320;51.362;6.946;2023-09-18T08:11:06;22.90;99.90
4615;DHT22;2320;51.362;6.946;2023-09-18T08:13:33;23.00;99.90
4615;DHT22;2320;51.362;6.946;2023-09-18T08:15:59;23.20;99.90
4615;DHT22;2320;51.362;6.946;2023-09-18T08:18:24;23.10;99.90
4615;DHT22;2320;51.362;6.946;2023-09-18T08:20:52;23.20;99.90
4615;DHT22;2320;51.362;6.946;2023-09-18T08:23:17;23.20;99.90
4615;DHT22;2320;51.362;6.946;2023-09-18T08:25:43;23.40;99.90
4615;DHT22;2320;51.362;6.946;2023-09-18T08:28:08;23.50;99.90
4615;DHT22;2320;51.362;6.946;2023-09-18T08:30:34;23.50;99.90
4615;DHT22;2320;51.362;6.946;2023-09-18T08:33:00;23.50;99.90
4615;DHT22;2320;51.362;6.946;2023-09-18T08:35:26;23.40;99.90
4615;DHT22;2320;51.362;6.946;2023-09-18T08:37:54;23.40;99.90
4615;DHT22;2320;51.362;6.946;2023-09-18T08:40:20;23.30;99.90
4615;DHT22;2320;51.362;6.946;2023-09-18T08:42:46;23.50;99.90
4615;DHT22;2320;51.362;6.946;2023-09-18T08:45:15;23.60;99.90
4615;DHT22;2320;51.362;6.946;2023-09-18T08:47:41;23.50;99.90
4615;DHT22;2320;51.362;6.946;2023-09-18T08:50:06;23.50;99.90
4615;DHT22;2320;51.362;6.946;2023-09-18T08:52:34;23.60;99.90
4615;DHT22;2320;51.362;6.946;2023-09-18T08:55:00;23.80;99.90
4615;DHT22;2320;51.362;6.946;2023-09-18T08:57:26;23.90;99.90
4615;DHT22;2320;51.362;6.946;2023-09-18T08:59:52;24.00;99.90
4615;DHT22;2320;51.362;6.946;2023-09-18T09:02:19;24.00;99.90
4615;DHT22;2320;51.362;6.946;2023-09-18T09:04:45;24.10;99.90
4615;DHT22;2320;51.362;6.946;2023-09-18T09:07:10;24.30;99.90
4615;DHT22;2320;51.362;6.946;2023-09-18T09:09:36;24.50;99.90
4615;DHT22;2320;51.362;6.946;2023-09-18T09:12:01;24.60;99.90
4615;DHT22;2320;51.362;6.946;2023-09-18T09:14:26;24.60;99.90
4615;DHT22;2320;51.362;6.946;2023-09-18T09:16:55;24.70;99.90
4615;DHT22;2320;51.362;6.946;2023-09-18T09:19:29;25.20;99.90
4615;DHT22;2320;51.362;6.946;2023-09-18T09:21:58;25.80;99.90
4615;DHT22;2320;51.362;6.946;2023-09-18T09:24:45;26.40;99.90
4615;DHT22;2320;51.362;6.946;2023-09-18T09:27:10;26.20;99.90
4615;DHT22;2320;51.362;6.946;2023-09-18T09:29:36;26.10;99.90
4615;DHT22;2320;51.362;6.946;2023-09-18T09:32:17;26.00;99.90
4615;DHT22;2320;51.362;6.946;2023-09-18T09:34:43;25.80;99.90
4615;DHT22;2320;51.362;6.946;2023-09-18T09:37:09;25.90;99.90
4615;DHT22;2320;51.362;6.946;2023-09-18T09:39:34;25.60;99.90
4615;DHT22;2320;51.362;6.946;2023-09-18T09:42:00;25.60;99.90
4615;DHT22;2320;51.362;6.946;2023-09-18T09:44:27;25.70;99.90
4615;DHT22;2320;51.362;6.946;2023-09-18T09:46:54;25.80;99.90
4615;DHT22;2320;51.362;6.946;2023-09-18T09:49:19;25.70;99.90
4615;DHT22;2320;51.362;6.946;2023-09-18T09:51:45;25.80;99.90
4615;DHT22;2320;51.362;6.946;2023-09-18T09:54:11;25.70;99.90
4615;DHT22;2320;51.362;6.946;2023-09-18T09:56:47;25.50;99.90
4615;DHT22;2320;51.362;6.946;2023-09-18T09:59:14;25.90;99.90
4615;DHT22;2320;51.362;6.946;2023-09-18T10:01:40;26.30;99.90
4615;DHT22;2320;51.362;6.946;2023-09-18T10:04:13;26.10;99.90
4615;DHT22;2320;51.362;6.946;2023-09-18T10:06:41;26.00;99.90
4615;DHT22;2320;51.362;6.946;2023-09-18T10:09:07;26.20;99.90
4615;DHT22;2320;51.362;6.946;2023-09-18T10:11:40;26.60;99.90
4615;DHT22;2320;51.362;6.946;2023-09-18T10:14:07;27.30;99.90
4615;DHT22;2320;51.362;6.946;2023-09-18T10:16:35;27.40;99.90
4615;DHT22;2320;51.362;6.946;2023-09-18T10:19:07;27.20;99.90
4615;DHT22;2320;51.362;6.946;2023-09-18T10:26:41;28.20;99.90
4615;DHT22;2320;51.362;6.946;2023-09-18T10:29:12;29.00;99.90
4615;DHT22;2320;51.362;6.946;2023-09-18T10:31:39;29.70;99.90
4615;DHT22;2320;51.362;6.946;2023-09-18T10:34:06;29.80;99.90
4615;DHT22;2320;51.362;6.946;2023-09-18T10:36:32;30.40;99.90
4615;DHT22;2320;51.362;6.946;2023-09-18T10:38:58;31.60;99.90
4615;DHT22;2320;51.362;6.946;2023-09-18T10:41:25;32.50;99.90
4615;DHT22;2320;51.362;6.946;2023-09-18T10:43:52;32.20;99.90
4615;DHT22;2320;51.362;6.946;2023-09-18T10:46:18;32.20;99.90
4615;DHT22;2320;51.362;6.946;2023-09-18T10:48:44;32.50;99.90
4615;DHT22;2320;51.362;6.946;2023-09-18T10:51:11;32.20;99.90
4615;DHT22;2320;51.362;6.946;2023-09-18T10:53:39;31.20;99.90
4615;DHT22;2320;51.362;6.946;2023-09-18T10:56:04;30.30;99.90
4615;DHT22;2320;51.362;6.946;2023-09-18T10:58:30;29.60;99.90
4615;DHT22;2320;51.362;6.946;2023-09-18T11:00:56;28.50;99.90
4615;DHT22;2320;51.362;6.946;2023-09-18T11:03:23;28.00;99.90
4615;DHT22;2320;51.362;6.946;2023-09-18T11:05:49;27.50;99.90
4615;DHT22;2320;51.362;6.946;2023-09-18T11:08:27;27.40;99.90
4615;DHT22;2320;51.362;6.946;2023-09-18T11:11:00;26.80;99.90
4615;DHT22;2320;51.362;6.946;2023-09-18T11:13:43;26.70;99.90
4615;DHT22;2320;51.362;6.946;2023-09-18T11:18:40;26.70;99.90
4615;DHT22;2320;51.362;6.946;2023-09-18T11:21:06;26.60;99.90
4615;DHT22;2320;51.362;6.946;2023-09-18T11:23:36;26.40;99.90
4615;DHT22;2320;51.362;6.946;2023-09-18T11:26:21;26.30;99.90
4615;DHT22;2320;51.362;6.946;2023-09-18T11:28:46;26.30;99.90
4615;DHT22;2320;51.362;6.946;2023-09-18T11:31:13;26.40;99.90
4615;DHT22;2320;51.362;6.946;2023-09-18T11:33:40;26.30;99.90
4615;DHT22;2320;51.362;6.946;2023-09-18T11:36:13;26.30;99.90
4615;DHT22;2320;51.362;6.946;2023-09-18T11:38:56;26.30;99.90
4615;DHT22;2320;51.362;6.946;2023-09-18T11:41:22;26.30;99.90
4615;DHT22;2320;51.362;6.946;2023-09-18T11:43:47;26.30;99.90
4615;DHT22;2320;51.362;6.946;2023-09-18T11:46:13;26.40;99.90
4615;DHT22;2320;51.362;6.946;2023-09-18T11:48:43;26.30;99.90
4615;DHT22;2320;51.362;6.946;2023-09-18T11:51:08;26.20;99.90
4615;DHT22;2320;51.362;6.946;2023-09-18T11:53:36;26.30;99.90
4615;DHT22;2320;51.362;6.946;2023-09-18T11:56:09;26.50;99.90
4615;DHT22;2320;51.362;6.946;2023-09-18T11:58:46;26.50;99.90
4615;DHT22;2320;51.362;6.946;2023-09-18T12:01:12;26.60;99.90
4615;DHT22;2320;51.362;6.946;2023-09-18T12:03:38;26.40;99.90
4615;DHT22;2320;51.362;6.946;2023-09-18T12:06:04;26.20;99.90
4615;DHT22;2320;51.362;6.946;2023-09-18T12:08:30;26.00;99.90
4615;DHT22;2320;51.362;6.946;2023-09-18T12:10:58;26.00;99.90
4615;DHT22;2320;51.362;6.946;2023-09-18T12:13:26;25.90;99.90
4615;DHT22;2320;51.362;6.946;2023-09-18T12:15:59;26.00;99.90
4615;DHT22;2320;51.362;6.946;2023-09-18T12:18:25;26.10;99.90
4615;DHT22;2320;51.362;6.946;2023-09-18T12:20:53;26.10;99.90
4615;DHT22;2320;51.362;6.946;2023-09-18T12:23:21;25.90;99.90
4615;DHT22;2320;51.362;6.946;2023-09-18T12:25:47;25.60;99.90
4615;DHT22;2320;51.362;6.946;2023-09-18T12:28:14;25.70;99.90
4615;DHT22;2320;51.362;6.946;2023-09-18T12:30:41;25.90;99.90
4615;DHT22;2320;51.362;6.946;2023-09-18T12:33:06;25.90;99.90
4615;DHT22;2320;51.362;6.946;2023-09-18T12:35:32;26.10;99.90
4615;DHT22;2320;51.362;6.946;2023-09-18T12:37:58;26.30;99.90
4615;DHT22;2320;51.362;6.946;2023-09-18T12:40:27;26.40;99.90
4615;DHT22;2320;51.362;6.946;2023-09-18T12:42:57;26.50;99.90
4615;DHT22;2320;51.362;6.946;2023-09-18T12:45:26;26.40;99.90
4615;DHT22;2320;51.362;6.946;2023-09-18T12:47:54;26.40;99.90
4615;DHT22;2320;51.362;6.946;2023-09-18T12:50:20;26.20;99.90
4615;DHT22;2320;51.362;6.946;2023-09-18T12:52:45;26.10;99.90
4615;DHT22;2320;51.362;6.946;2023-09-18T12:55:20;26.20;99.90
4615;DHT22;2320;51.362;6.946;2023-09-18T12:57:46;26.40;99.90
4615;DHT22;2320;51.362;6.946;2023-09-18T13:00:11;26.50;99.90
4615;DHT22;2320;51.362;6.946;2023-09-18T13:02:38;26.50;99.90
4615;DHT22;2320;51.362;6.946;2023-09-18T13:05:04;26.30;99.90
4615;DHT22;2320;51.362;6.946;2023-09-18T13:07:30;26.20;99.90
4615;DHT22;2320;51.362;6.946;2023-09-18T13:10:02;26.10;99.90
4615;DHT22;2320;51.362;6.946;2023-09-18T13:12:45;26.10;99.90
4615;DHT22;2320;51.362;6.946;2023-09-18T13:15:11;26.10;99.90
4615;DHT22;2320;51.362;6.946;2023-09-18T13:17:44;26.00;99.90
4615;DHT22;2320;51.362;6.946;2023-09-18T13:20:11;25.90;99.90
4615;DHT22;2320;51.362;6.946;2023-09-18T13:22:38;25.90;99.90
4615;DHT22;2320;51.362;6.946;2023-09-18T13:25:05;25.90;99.90
4615;DHT22;2320;51.362;6.946;2023-09-18T13:27:30;25.90;99.90
4615;DHT22;2320;51.362;6.946;2023-09-18T13:29:56;25.90;99.90
4615;DHT22;2320;51.362;6.946;2023-09-18T13:32:21;25.90;99.90
4615;DHT22;2320;51.362;6.946;2023-09-18T13:34:47;25.90;99.90
4615;DHT22;2320;51.362;6.946;2023-09-18T13:37:13;25.80;99.90
4615;DHT22;2320;51.362;6.946;2023-09-18T13:39:39;25.80;99.90
4615;DHT22;2320;51.362;6.946;2023-09-18T13:42:05;25.80;99.90
4615;DHT22;2320;51.362;6.946;2023-09-18T13:44:30;26.00;99.90
4615;DHT22;2320;51.362;6.946;2023-09-18T13:46:56;26.10;99.90
4615;DHT22;2320;51.362;6.946;2023-09-18T13:49:21;26.00;99.90
4615;DHT22;2320;51.362;6.946;2023-09-18T13:51:48;26.00;99.90
4615;DHT22;2320;51.362;6.946;2023-09-18T13:54:15;25.70;99.90
4615;DHT22;2320;51.362;6.946;2023-09-18T13:56:41;25.60;99.90
4615;DHT22;2320;51.362;6.946;2023-09-18T13:59:08;25.70;99.90
4615;DHT22;2320;51.362;6.946;2023-09-18T14:01:35;25.80;99.90
4615;DHT22;2320;51.362;6.946;2023-09-18T14:04:01;26.10;99.90
4615;DHT22;2320;51.362;6.946;2023-09-18T14:06:26;26.20;99.90
4615;DHT22;2320;51.362;6.946;2023-09-18T14:08:51;26.10;99.90
4615;DHT22;2320;51.362;6.946;2023-09-18T14:11:17;26.10;99.90
4615;DHT22;2320;51.362;6.946;2023-09-18T14:13:43;26.10;99.90
4615;DHT22;2320;51.362;6.946;2023-09-18T14:16:08;25.90;99.90
4615;DHT22;2320;51.362;6.946;2023-09-18T14:18:36;26.00;99.90
4615;DHT22;2320;51.362;6.946;2023-09-18T14:21:01;25.90;99.90
4615;DHT22;2320;51.362;6.946;2023-09-18T14:23:27;25.80;99.90
4615;DHT22;2320;51.362;6.946;2023-09-18T14:25:52;25.80;99.90
4615;DHT22;2320;51.362;6.946;2023-09-18T14:28:18;25.80;99.90
4615;DHT22;2320;51.362;6.946;2023-09-18T14:30:43;25.80;99.90
4615;DHT22;2320;51.362;6.946;2023-09-18T14:33:09;25.70;99.90
4615;DHT22;2320;51.362;6.946;2023-09-18T14:35:36;25.50;99.90
4615;DHT22;2320;51.362;6.946;2023-09-18T14:38:01;25.40;99.90
4615;DHT22;2320;51.362;6.946;2023-09-18T14:40:29;25.40;99.90
4615;DHT22;2320;51.362;6.946;2023-09-18T14:42:54;25.30;99.90
4615;DHT22;2320;51.362;6.946;2023-09-18T14:45:20;25.30;99.90
4615;DHT22;2320;51.362;6.946;2023-09-18T14:47:45;25.40;99.90
4615;DHT22;2320;51.362;6.946;2023-09-18T14:50:11;25.40;99.90
4615;DHT22;2320;51.362;6.946;2023-09-18T14:52:36;25.40;99.90
4615;DHT22;2320;51.362;6.946;2023-09-18T14:55:02;25.50;99.90
4615;DHT22;2320;51.362;6.946;2023-09-18T14:57:29;25.50;99.90
4615;DHT22;2320;51.362;6.946;2023-09-18T14:59:54;25.50;99.90
4615;DHT22;2320;51.362;6.946;2023-09-18T15:02:20;25.40;99.90
4615;DHT22;2320;51.362;6.946;2023-09-18T15:04:45;25.40;99.90
4615;DHT22;2320;51.362;6.946;2023-09-18T15:07:13;25.40;99.90
4615;DHT22;2320;51.362;6.946;2023-09-18T15:09:39;25.30;99.90
4615;DHT22;2320;51.362;6.946;2023-09-18T15:12:04;25.40;99.90
4615;DHT22;2320;51.362;6.946;2023-09-18T15:14:33;25.40;99.90
4615;DHT22;2320;51.362;6.946;2023-09-18T15:16:59;25.40;99.90
4615;DHT22;2320;51.362;6.946;2023-09-18T15:19:24;25.30;99.90
4615;DHT22;2320;51.362;6.946;2023-09-18T15:21:50;25.30;99.90
4615;DHT22;2320;51.362;6.946;2023-09-18T15:24:17;25.40;99.90
4615;DHT22;2320;51.362;6.946;2023-09-18T15:26:43;25.30;99.90
4615;DHT22;2320;51.362;6.946;2023-09-18T15:29:09;25.30;99.90
4615;DHT22;2320;51.362;6.946;2023-09-18T15:31:35;25.20;99.90
4615;DHT22;2320;51.362;6.946;2023-09-18T15:34:01;25.20;99.90
4615;DHT22;2320;51.362;6.946;2023-09-18T15:36:26;25.10;99.90
4615;DHT22;2320;51.362;6.946;2023-09-18T15:38:52;25.10;99.90
4615;DHT22;2320;51.362;6.946;2023-09-18T15:41:17;25.00;99.90
4615;DHT22;2320;51.362;6.946;2023-09-18T15:43:43;25.00;99.90
4615;DHT22;2320;51.362;6.946;2023-09-18T15:46:10;25.00;99.90
4615;DHT22;2320;51.362;6.946;2023-09-18T15:48:35;25.10;99.90
4615;DHT22;2320;51.362;6.946;2023-09-18T15:51:01;25.20;99.90
4615;DHT22;2320;51.362;6.946;2023-09-18T15:53:27;25.10;99.90
4615;DHT22;2320;51.362;6.946;2023-09-18T15:55:52;25.10;99.90
4615;DHT22;2320;51.362;6.946;2023-09-18T15:58:18;24.90;99.90
4615;DHT22;2320;51.362;6.946;2023-09-18T16:00:44;25.00;99.90
4615;DHT22;2320;51.362;6.946;2023-09-18T16:03:10;25.00;99.90
4615;DHT22;2320;51.362;6.946;2023-09-18T16:05:35;24.90;99.90